createdAt,value
2022-07-28T00:03:13.313Z,3.70
2022-07-28T00:08:15.173Z,3.10
2022-07-28T00:13:17.151Z,3.60
2022-07-28T00:18:19.135Z,3.90
2022-07-28T00:23:21.014Z,4.60
2022-07-28T00:28:22.787Z,2.40
2022-07-28T00:33:24.565Z,4.70
2022-07-28T00:38:26.548Z,4.00
2022-07-28T00:43:28.203Z,4.00
2022-07-28T00:48:30.102Z,5.90
2022-07-28T00:53:31.879Z,4.00
2022-07-28T00:58:34.475Z,6.90
2022-07-28T01:03:37.896Z,5.00
2022-07-28T01:08:39.776Z,3.70
2022-07-28T01:13:55.681Z,2.90
2022-07-28T01:19:03.500Z,5.70
2022-07-28T01:24:05.149Z,5.10
2022-07-28T01:29:13.097Z,4.90
2022-07-28T01:34:20.299Z,14.60
2022-07-28T01:39:23.923Z,10.60
2022-07-28T01:44:26.743Z,12.00
2022-07-28T01:49:30.035Z,21.20
2022-07-28T01:54:32.433Z,17.50
2022-07-28T01:59:35.332Z,6.80
2022-07-28T02:04:38.855Z,12.80
2022-07-28T02:09:48.127Z,12.80
2022-07-28T02:14:50.795Z,20.50
2022-07-28T02:19:52.877Z,17.00
2022-07-28T02:24:56.014Z,9.00
2022-07-28T02:30:02.890Z,11.70
2022-07-28T02:35:20.030Z,14.40
2022-07-28T02:40:25.108Z,5.50
2022-07-28T02:45:28.811Z,10.40
2022-07-28T02:50:30.788Z,6.10
2022-07-28T02:55:33.795Z,11.60
2022-07-28T03:00:36.086Z,12.20
2022-07-28T03:05:40.092Z,11.80
2022-07-28T03:10:42.161Z,13.70
2022-07-28T03:15:43.973Z,13.60
2022-07-28T03:20:46.266Z,10.90
2022-07-28T03:25:50.500Z,9.20
2022-07-28T03:30:58.386Z,9.00
2022-07-28T03:36:02.793Z,7.70
2022-07-28T03:41:06.484Z,15.70
2022-07-28T03:46:13.195Z,8.70
2022-07-28T03:51:15.464Z,11.70
2022-07-28T03:56:17.364Z,7.20
2022-07-28T04:01:19.240Z,12.00
2022-07-28T04:06:21.309Z,20.50
2022-07-28T04:11:23.493Z,14.00
2022-07-28T04:16:25.323Z,10.90
2022-07-28T04:21:31.688Z,9.50
2022-07-28T04:26:33.432Z,8.00
2022-07-28T04:31:35.540Z,9.30
2022-07-28T04:36:42.413Z,8.40
2022-07-28T04:41:46.354Z,8.00
2022-07-28T04:46:48.834Z,6.20
2022-07-28T04:51:52.777Z,7.90
2022-07-28T04:56:59.234Z,6.70
2022-07-28T05:02:04.710Z,3.90
2022-07-28T05:07:07.969Z,7.90
2022-07-28T05:12:13.598Z,4.10
2022-07-28T05:17:15.577Z,5.30
2022-07-28T05:22:17.714Z,5.20
2022-07-28T05:27:19.541Z,4.90
2022-07-28T05:32:21.240Z,7.70
2022-07-28T05:37:22.995Z,3.60
2022-07-28T05:42:26.641Z,5.70
2022-07-28T05:47:28.490Z,5.60
2022-07-28T05:52:30.469Z,7.90
2022-07-28T05:57:32.350Z,7.10
2022-07-28T06:02:34.435Z,3.90
2022-07-28T06:07:43.969Z,2.90
2022-07-28T06:12:47.217Z,8.90
2022-07-28T06:17:52.793Z,7.10
2022-07-28T06:22:55.493Z,6.40
2022-07-28T06:27:58.658Z,3.90
2022-07-28T06:33:00.562Z,3.90
2022-07-28T06:38:02.234Z,4.00
2022-07-28T06:43:04.322Z,5.80
2022-07-28T06:48:08.114Z,2.80
2022-07-28T06:53:10.026Z,2.50
2022-07-28T06:58:11.903Z,3.90
2022-07-28T07:03:13.666Z,4.10
2022-07-28T07:08:15.327Z,2.50
2022-07-28T07:13:17.240Z,4.30
2022-07-28T07:18:18.991Z,4.20
2022-07-28T07:23:21.001Z,2.70
2022-07-28T07:28:22.700Z,4.00
2022-07-28T07:33:24.377Z,2.70
2022-07-28T07:38:29.109Z,4.20
2022-07-28T07:43:31.301Z,5.50
2022-07-28T07:48:33.117Z,5.00
2022-07-28T07:53:35.077Z,5.10
2022-07-28T07:58:36.924Z,5.60
2022-07-28T08:03:38.736Z,5.70
2022-07-28T08:08:45.058Z,2.40
2022-07-28T08:13:48.290Z,4.00
2022-07-28T08:18:49.957Z,4.10
2022-07-28T08:23:51.934Z,6.30
2022-07-28T08:28:53.713Z,5.40
2022-07-28T08:33:55.711Z,4.90
2022-07-28T08:38:57.587Z,3.60
2022-07-28T08:43:59.996Z,6.00
2022-07-28T08:49:02.782Z,3.30
2022-07-28T08:54:06.037Z,10.70
2022-07-28T08:59:07.916Z,5.70
2022-07-28T09:04:10.280Z,2.70
2022-07-28T09:09:12.149Z,5.20
2022-07-28T09:14:14.354Z,2.80
2022-07-28T09:19:16.716Z,2.70
2022-07-28T09:24:32.528Z,2.10
2022-07-28T09:29:38.483Z,5.00
2022-07-28T09:34:47.960Z,6.60
2022-07-28T09:39:50.761Z,3.70
2022-07-28T09:45:25.310Z,3.30
2022-07-28T09:50:30.283Z,3.70
2022-07-28T09:55:35.538Z,4.60
2022-07-28T10:00:37.245Z,3.30
2022-07-28T10:05:39.887Z,5.30
2022-07-28T10:10:41.654Z,2.20
2022-07-28T10:16:01.919Z,2.60
2022-07-28T10:21:07.976Z,1.60
2022-07-28T10:26:13.055Z,3.50
2022-07-28T10:31:17.797Z,3.50
2022-07-28T10:36:22.962Z,4.80
2022-07-28T10:41:26.532Z,2.70
2022-07-28T10:46:32.225Z,2.80
2022-07-28T10:51:34.509Z,4.70
2022-07-28T10:56:52.862Z,4.10
2022-07-28T11:01:59.311Z,4.40
2022-07-28T11:07:11.152Z,2.70
2022-07-28T11:12:15.488Z,2.70
2022-07-28T11:17:24.028Z,6.20
2022-07-28T11:22:34.995Z,2.70
2022-07-28T11:27:39.813Z,2.60
2022-07-28T11:32:50.501Z,6.20
2022-07-28T11:38:01.462Z,4.30
2022-07-28T11:43:22.552Z,3.40
2022-07-28T11:48:38.612Z,8.10
2022-07-28T11:53:41.904Z,2.90
2022-07-28T11:58:43.715Z,2.80
2022-07-28T12:03:49.563Z,5.90
2022-07-28T12:09:02.422Z,11.60
2022-07-28T12:14:11.554Z,4.60
2022-07-28T12:19:17.930Z,2.90
2022-07-28T12:24:30.969Z,3.20
2022-07-28T12:29:36.071Z,3.80
2022-07-28T12:34:40.191Z,5.00
2022-07-28T12:39:44.723Z,4.10
2022-07-28T12:44:51.598Z,4.00
2022-07-28T12:50:14.261Z,4.60
2022-07-28T12:55:23.208Z,3.40
2022-07-28T13:00:26.733Z,3.90
2022-07-28T13:05:54.728Z,4.30
2022-07-28T13:10:59.020Z,3.40
2022-07-28T13:16:10.992Z,2.40
2022-07-28T13:21:13.358Z,3.60
2022-07-28T13:26:15.138Z,4.40
2022-07-28T13:31:17.007Z,2.80
2022-07-28T13:36:19.159Z,4.20
2022-07-28T13:41:20.899Z,4.10
2022-07-28T13:46:22.793Z,4.70
2022-07-28T13:51:24.744Z,2.90
2022-07-28T13:56:38.759Z,4.40
2022-07-28T14:01:42.309Z,3.70
2022-07-28T14:06:47.996Z,4.40
2022-07-28T14:11:53.625Z,2.80
2022-07-28T14:16:56.272Z,3.20
2022-07-28T14:21:58.719Z,2.50
2022-07-28T14:27:00.532Z,3.60
2022-07-28T14:32:02.307Z,2.50
2022-07-28T14:37:06.652Z,3.40
2022-07-28T14:42:11.084Z,4.00
2022-07-28T14:47:12.829Z,3.10
2022-07-28T14:52:14.849Z,5.50
2022-07-28T14:57:16.952Z,2.50
2022-07-28T15:02:19.130Z,3.50
2022-07-28T15:07:31.774Z,4.60
2022-07-28T15:12:33.731Z,5.00
2022-07-28T15:17:36.017Z,5.10
2022-07-28T15:22:37.897Z,2.40
2022-07-28T15:27:45.310Z,4.30
2022-07-28T15:32:55.948Z,3.10
2022-07-28T15:37:59.514Z,3.60
2022-07-28T15:43:01.600Z,2.90
2022-07-28T15:48:03.766Z,5.90
2022-07-28T15:53:05.482Z,3.80
2022-07-28T15:58:07.545Z,3.10
2022-07-28T16:03:09.498Z,3.10
2022-07-28T16:08:11.403Z,3.20
2022-07-28T16:13:13.287Z,3.70
2022-07-28T16:18:15.163Z,5.70
2022-07-28T16:23:17.040Z,6.20
2022-07-28T16:28:18.921Z,4.80
2022-07-28T16:33:20.699Z,3.60
2022-07-28T16:38:22.278Z,3.60
2022-07-28T16:43:23.946Z,3.60
2022-07-28T16:48:25.728Z,5.60
2022-07-28T16:53:27.432Z,9.10
2022-07-28T16:58:37.628Z,9.10
2022-07-28T17:03:39.856Z,7.40
2022-07-28T17:08:41.535Z,3.90
2022-07-28T17:13:45.404Z,8.60
2022-07-28T17:18:47.429Z,3.90
2022-07-28T17:23:49.223Z,3.90
2022-07-28T17:28:50.999Z,5.00
2022-07-28T17:33:52.785Z,5.30
2022-07-28T17:38:54.657Z,5.60
2022-07-28T17:43:56.430Z,7.50
2022-07-28T17:48:58.958Z,7.50
2022-07-28T17:54:00.814Z,6.90
2022-07-28T17:59:03.091Z,10.50
2022-07-28T18:04:05.228Z,8.30
2022-07-28T18:09:10.754Z,14.20
2022-07-28T18:14:17.881Z,12.70
2022-07-28T18:19:27.236Z,14.00
2022-07-28T18:24:41.976Z,4.10
2022-07-28T18:33:04.350Z,4.30
2022-07-28T18:38:06.957Z,9.00
2022-07-28T18:43:12.918Z,4.30
2022-07-28T18:48:15.131Z,5.40
2022-07-28T18:53:21.399Z,5.40
2022-07-28T18:58:23.203Z,6.00
2022-07-28T19:03:25.052Z,6.00
2022-07-28T19:08:27.035Z,9.00
2022-07-28T19:13:28.811Z,6.70
2022-07-28T19:18:30.589Z,8.90
2022-07-28T19:23:32.573Z,8.40
2022-07-28T19:28:34.388Z,5.70
2022-07-28T19:33:36.650Z,6.70
2022-07-28T19:38:38.662Z,10.50
2022-07-28T19:43:40.706Z,9.30
2022-07-28T19:48:43.996Z,5.10
2022-07-28T19:53:45.999Z,7.50
2022-07-28T19:58:50.238Z,3.10
2022-07-28T20:04:00.906Z,5.60
2022-07-28T20:09:05.053Z,4.60
2022-07-28T20:14:06.752Z,12.40
2022-07-28T20:19:09.586Z,5.10
2022-07-28T20:24:11.774Z,6.50
2022-07-28T20:29:13.803Z,8.40
2022-07-28T20:34:15.913Z,9.80
2022-07-28T20:39:43.443Z,8.10
2022-07-28T20:44:39.620Z,7.00
2022-07-28T20:49:43.746Z,9.30
2022-07-28T20:54:48.337Z,6.20
2022-07-28T20:59:52.523Z,3.70
2022-07-28T21:04:54.226Z,7.30
2022-07-28T21:09:56.584Z,6.80
2022-07-28T21:14:58.474Z,8.80
2022-07-28T21:20:00.359Z,6.10
2022-07-28T21:25:02.121Z,8.80
2022-07-28T21:30:04.217Z,6.00
2022-07-28T21:35:09.733Z,9.00
2022-07-28T21:40:16.264Z,5.70
2022-07-28T21:45:20.496Z,10.10
2022-07-28T21:50:23.093Z,5.70
2022-07-28T21:55:24.874Z,8.10
2022-07-28T22:00:26.963Z,6.50
2022-07-28T22:05:29.682Z,9.30
2022-07-28T22:10:31.551Z,9.70
2022-07-28T22:15:33.338Z,6.60
2022-07-28T22:20:35.435Z,7.80
2022-07-28T22:25:37.818Z,9.80
2022-07-28T22:30:39.671Z,9.60
2022-07-28T22:35:41.525Z,9.20
2022-07-28T22:40:43.535Z,5.80
2022-07-28T22:45:50.344Z,9.10
2022-07-28T22:50:53.332Z,8.00
2022-07-28T23:01:14.793Z,9.70
2022-07-28T23:06:17.316Z,10.00
2022-07-28T23:11:19.296Z,7.70
2022-07-28T23:16:21.240Z,12.50
2022-07-28T23:21:23.366Z,8.60
2022-07-28T23:26:25.447Z,6.40
2022-07-28T23:31:27.480Z,7.90
2022-07-28T23:36:30.128Z,8.70
2022-07-28T23:41:32.213Z,11.30
2022-07-28T23:46:34.362Z,12.10
2022-07-28T23:51:46.958Z,8.40
2022-07-28T23:56:56.083Z,7.40
